createdAt,value
2019-06-01T07:06:25.732Z,3.47
2019-06-01T07:08:53.610Z,5.45
2019-06-01T07:11:19.621Z,4.83
2019-06-01T07:16:11.358Z,5.78
2019-06-01T07:18:14.331Z,4.20
2019-06-01T07:21:32.038Z,3.87
2019-06-01T07:23:56.382Z,4.25
2019-06-01T07:26:27.946Z,4.05
2019-06-01T07:29:05.812Z,5.87
2019-06-01T07:31:34.603Z,4.80
2019-06-01T07:34:05.805Z,4.87
2019-06-01T07:38:08.212Z,4.25
2019-06-01T07:40:13.777Z,7.20
2019-06-01T07:42:08.122Z,9.28
2019-06-01T07:44:36.028Z,3.62
2019-06-01T07:47:06.203Z,5.17
2019-06-01T07:50:01.216Z,5.50
2019-06-01T07:52:45.385Z,6.53
2019-06-01T07:55:16.372Z,3.77
2019-06-01T07:57:43.753Z,5.60
2019-06-01T08:01:03.336Z,3.40
2019-06-01T08:03:34.964Z,6.30
2019-06-01T08:05:57.837Z,3.95
2019-06-01T08:08:23.402Z,3.50
2019-06-01T08:10:54.521Z,4.53
2019-06-01T08:13:50.161Z,3.52
2019-06-01T08:15:53.757Z,3.58
2019-06-01T08:18:47.415Z,5.30
2019-06-01T08:21:18.160Z,5.85
2019-06-01T08:23:15.554Z,5.30
2019-06-01T08:26:42.509Z,7.58
2019-06-01T08:28:24.405Z,4.80
2019-06-01T08:30:53.485Z,3.90
2019-06-01T08:33:20.387Z,3.15
2019-06-01T08:35:51.917Z,6.05
2019-06-01T08:40:07.613Z,4.40
2019-06-01T08:41:14.454Z,3.42
2019-06-01T08:46:57.619Z,4.53
2019-06-01T08:49:34.492Z,3.95
2019-06-01T08:53:01.535Z,5.00
2019-06-01T08:54:37.309Z,5.30
2019-06-01T08:57:02.316Z,3.45
2019-06-01T09:00:28.448Z,3.87
2019-06-01T09:02:01.373Z,3.67
2019-06-01T09:05:59.732Z,3.45
2019-06-01T09:07:14.250Z,5.35
2019-06-01T09:09:46.098Z,5.12
2019-06-01T09:12:39.674Z,5.30
2019-06-01T09:14:41.055Z,5.12
2019-06-01T09:17:05.096Z,4.47
2019-06-01T09:20:58.795Z,5.00
2019-06-01T09:22:18.990Z,4.28
2019-06-01T09:27:50.405Z,3.65
2019-06-01T09:30:46.485Z,3.65
2019-06-01T09:33:08.100Z,8.15
2019-06-01T09:35:56.188Z,4.72
2019-06-01T09:38:03.327Z,10.63
2019-06-01T09:40:30.420Z,5.15
2019-06-01T09:42:55.119Z,3.75
2019-06-01T09:45:25.690Z,4.20
2019-06-01T09:47:52.191Z,5.78
2019-06-01T09:50:21.684Z,3.22
2019-06-01T09:52:58.365Z,4.45
2019-06-01T09:55:27.743Z,4.17
2019-06-01T09:57:49.165Z,5.03
2019-06-01T10:00:16.034Z,7.17
2019-06-01T10:02:44.710Z,6.72
2019-06-01T10:05:42.235Z,5.42
2019-06-01T10:08:17.114Z,4.58
2019-06-01T10:10:14.496Z,5.45
2019-06-01T10:15:23.451Z,5.50
2019-06-01T10:17:47.875Z,4.80
2019-06-01T10:20:17.683Z,6.12
2019-06-01T10:22:46.485Z,8.98
2019-06-01T10:25:11.574Z,5.20
2019-06-01T10:27:41.208Z,7.22
2019-06-01T10:30:17.486Z,4.15
2019-06-01T10:33:11.150Z,4.33
2019-06-01T10:35:15.068Z,3.72
2019-06-01T10:38:14.238Z,7.35
2019-06-01T10:40:09.153Z,3.80
2019-06-01T10:42:47.519Z,7.05
2019-06-01T10:47:58.816Z,3.37
2019-06-01T10:50:32.827Z,5.33
2019-06-01T10:54:24.140Z,3.25
2019-06-01T10:56:05.592Z,4.40
2019-06-01T10:58:05.473Z,5.78
2019-06-01T11:00:39.845Z,7.60
2019-06-01T11:02:58.581Z,3.30
2019-06-01T11:05:27.713Z,5.28
2019-06-01T11:07:54.512Z,4.00
2019-06-01T11:10:25.405Z,4.95
2019-06-01T11:13:18.573Z,6.00
2019-06-01T11:15:48.844Z,4.55
2019-06-01T11:17:47.494Z,4.22
2019-06-01T11:20:14.037Z,4.35
2019-06-01T11:22:41.547Z,4.03
2019-06-01T11:25:10.105Z,3.92
2019-06-01T11:27:37.806Z,7.90
2019-06-01T11:30:01.165Z,3.77
2019-06-01T11:32:30.340Z,4.37
2019-06-01T11:34:55.534Z,4.08
2019-06-01T11:37:19.341Z,6.17
2019-06-01T11:39:46.417Z,3.47
2019-06-01T11:42:13.125Z,3.77
2019-06-01T11:47:38.921Z,5.33
2019-06-01T11:50:04.812Z,4.15
2019-06-01T11:53:03.937Z,5.17
2019-06-01T11:54:57.588Z,3.72
2019-06-01T11:57:26.622Z,3.87
2019-06-01T11:59:51.129Z,4.65
2019-06-01T12:02:46.354Z,4.85
2019-06-01T12:05:17.894Z,5.12
2019-06-01T12:07:27.305Z,5.15
2019-06-01T12:09:56.793Z,3.62
2019-06-01T12:12:21.230Z,7.62
2019-06-01T12:14:51.881Z,4.10
2019-06-01T12:17:17.094Z,3.25
2019-06-01T12:19:53.234Z,4.10
2019-06-01T12:22:19.366Z,4.62
2019-06-01T12:24:54.721Z,5.55
2019-06-01T12:27:15.615Z,3.12
2019-06-01T12:29:42.120Z,3.05
2019-06-01T12:32:18.563Z,3.92
2019-06-01T12:34:48.476Z,3.02
2019-06-01T12:40:07.629Z,3.83
2019-06-01T12:42:57.881Z,3.10
2019-06-01T12:45:25.509Z,5.80
2019-06-01T12:49:48.521Z,4.62
2019-06-01T12:50:29.867Z,4.12
2019-06-01T12:55:42.652Z,4.10
2019-06-01T12:58:10.988Z,3.02
2019-06-01T13:00:48.268Z,3.60
2019-06-01T13:03:11.641Z,2.70
2019-06-01T13:05:49.885Z,2.83
2019-06-01T13:08:18.668Z,4.05
2019-06-01T13:11:10.809Z,3.02
2019-06-01T13:13:11.458Z,3.62
2019-06-01T13:16:06.226Z,2.92
2019-06-01T13:18:06.106Z,3.58
2019-06-01T13:21:29.272Z,2.72
2019-06-01T13:23:05.260Z,3.98
2019-06-01T13:26:00.928Z,3.45
2019-06-01T13:29:30.271Z,5.65
2019-06-01T13:31:03.992Z,2.80
2019-06-01T13:34:06.028Z,3.15
2019-06-01T13:37:00.347Z,4.20
2019-06-01T13:38:16.361Z,4.35
2019-06-01T13:40:42.820Z,3.22
2019-06-01T13:43:45.239Z,2.85
2019-06-01T13:45:47.253Z,3.98
2019-06-01T13:48:14.396Z,4.53
2019-06-01T13:50:41.328Z,5.65
2019-06-01T13:54:05.202Z,5.30
2019-06-01T13:55:38.694Z,4.60
2019-06-01T13:58:46.362Z,2.70
2019-06-01T14:00:48.395Z,3.05
2019-06-01T14:03:42.955Z,4.05
2019-06-01T14:06:13.980Z,4.10
2019-06-01T14:10:55.481Z,3.60
2019-06-01T14:13:24.694Z,3.37
2019-06-01T14:16:32.013Z,3.25
2019-06-01T14:18:33.168Z,3.60
2019-06-01T14:24:44.588Z,4.10
2019-06-01T14:26:16.029Z,4.05
2019-06-01T14:29:48.187Z,2.62
2019-06-01T14:31:15.749Z,4.05
2019-06-01T14:36:28.529Z,6.12
2019-06-01T14:38:59.759Z,2.60
2019-06-01T14:41:35.176Z,5.00
2019-06-01T14:44:01.875Z,2.67
2019-06-01T14:47:27.939Z,2.92
2019-06-01T14:49:11.920Z,3.30
2019-06-01T14:51:51.535Z,3.00
2019-06-01T14:54:47.590Z,3.07
2019-06-01T14:57:23.081Z,3.22
2019-06-01T14:59:56.198Z,3.87
2019-06-01T15:02:25.486Z,3.00
2019-06-01T15:04:54.307Z,2.70
2019-06-01T15:10:26.519Z,2.80
2019-06-01T15:12:37.328Z,4.35
2019-06-01T15:14:38.916Z,4.05
2019-06-01T15:18:07.005Z,3.47
2019-06-01T15:19:13.061Z,3.83
2019-06-01T15:22:07.425Z,3.50
2019-06-01T15:24:08.464Z,2.70
2019-06-01T15:27:05.224Z,3.65
2019-06-01T15:29:06.134Z,2.47
2019-06-01T15:31:33.051Z,2.83
2019-06-01T15:34:01.842Z,2.55
2019-06-01T15:37:58.913Z,3.47
2019-06-01T15:39:30.122Z,4.97
2019-06-01T15:41:31.617Z,5.12
2019-06-01T15:43:59.201Z,3.37
2019-06-01T15:46:33.125Z,6.47
2019-06-01T15:48:51.637Z,3.10
2019-06-01T15:51:58.426Z,2.87
2019-06-01T15:55:00.332Z,2.35
2019-06-01T15:57:00.606Z,3.35
2019-06-01T15:59:35.875Z,3.75
2019-06-01T16:03:03.136Z,3.02
2019-06-01T16:04:09.361Z,4.53
2019-06-01T16:06:54.933Z,2.83
2019-06-01T16:11:53.394Z,5.20
2019-06-01T16:14:23.035Z,2.00
2019-06-01T16:17:46.758Z,2.90
2019-06-01T16:23:11.017Z,3.62
2019-06-01T16:25:43.138Z,2.87
2019-06-01T16:31:04.723Z,2.92
2019-06-01T16:34:02.919Z,2.42
2019-06-01T16:36:01.027Z,3.05
2019-06-01T16:38:27.776Z,5.42
2019-06-01T16:41:03.416Z,4.20
2019-06-01T16:43:31.284Z,4.20
2019-06-01T16:46:55.954Z,2.90
2019-06-01T16:48:31.053Z,4.62
2019-06-01T16:51:01.740Z,2.80
2019-06-01T16:54:56.176Z,2.98
2019-06-01T16:56:33.989Z,4.85
2019-06-01T16:59:02.327Z,3.25
2019-06-01T17:01:02.710Z,2.87
2019-06-01T17:03:33.434Z,5.55
2019-06-01T17:06:00.580Z,3.05
2019-06-01T17:08:29.887Z,2.90
2019-06-01T17:10:56.580Z,4.20
2019-06-01T17:13:26.891Z,5.58
2019-06-01T17:15:54.991Z,5.42
2019-06-01T17:18:31.294Z,3.30
2019-06-01T17:20:59.278Z,3.72
2019-06-01T17:23:27.884Z,3.20
2019-06-01T17:25:53.509Z,5.22
2019-06-01T17:28:22.319Z,2.90
2019-06-01T17:31:54.531Z,3.37
2019-06-01T17:33:21.669Z,4.65
2019-06-01T17:35:50.387Z,4.15
2019-06-01T17:38:45.385Z,2.58
2019-06-01T17:41:14.834Z,4.87
2019-06-01T17:43:18.624Z,5.28
2019-06-01T17:45:46.886Z,3.90
2019-06-01T17:49:30.735Z,2.95
2019-06-01T17:50:48.278Z,5.42
2019-06-01T17:53:15.735Z,4.00
2019-06-01T17:55:45.176Z,4.40
2019-06-01T17:59:54.873Z,5.15
2019-06-01T18:01:54.695Z,4.08
2019-06-01T18:04:24.401Z,3.52
2019-06-01T18:06:51.465Z,2.87
2019-06-01T18:09:20.193Z,5.78
2019-06-01T18:11:50.866Z,4.35
2019-06-01T18:14:15.521Z,5.50
2019-06-01T18:17:43.647Z,19.62
2019-06-01T18:19:16.306Z,3.30
2019-06-01T18:21:41.673Z,3.77
2019-06-01T18:24:18.828Z,4.03
2019-06-01T18:27:16.334Z,5.15
2019-06-01T18:29:14.261Z,6.22
2019-06-01T18:31:40.753Z,6.10
2019-06-01T18:34:07.851Z,5.03
2019-06-01T18:36:49.115Z,4.55
2019-06-01T18:40:09.863Z,4.85
2019-06-01T18:41:44.633Z,4.08
2019-06-01T18:44:13.963Z,5.55
2019-06-01T18:46:37.706Z,4.40
2019-06-01T18:49:09.963Z,5.65
2019-06-01T18:51:34.867Z,9.00
2019-06-01T18:54:31.419Z,10.10
2019-06-01T18:56:30.695Z,6.58
2019-06-01T18:58:58.588Z,4.97
2019-06-01T19:01:24.291Z,5.50
2019-06-01T19:03:51.179Z,4.28
2019-06-01T19:06:19.747Z,4.58
2019-06-01T19:10:21.578Z,5.72
2019-06-01T19:11:59.433Z,4.72
2019-06-01T19:14:56.071Z,7.35
2019-06-01T19:16:32.057Z,7.12
2019-06-01T19:19:12.609Z,8.50
2019-06-01T19:21:46.067Z,7.42
2019-06-01T19:25:08.724Z,13.20
2019-06-01T19:29:06.735Z,11.78
2019-06-01T19:33:26.045Z,10.88
2019-06-01T19:34:33.182Z,9.18
2019-06-01T19:37:02.027Z,9.18
2019-06-01T19:39:57.276Z,10.98
2019-06-01T19:43:03.832Z,7.72
2019-06-01T19:45:01.330Z,11.28
2019-06-01T19:47:28.841Z,9.23
2019-06-01T19:50:04.281Z,11.03
2019-06-01T19:52:36.581Z,9.53
2019-06-01T19:54:48.388Z,6.28
2019-06-01T19:57:10.008Z,6.05
2019-06-01T19:59:37.901Z,7.72
2019-06-01T20:02:23.252Z,7.50
2019-06-01T20:04:38.817Z,7.65
2019-06-01T20:07:05.264Z,8.00
2019-06-01T20:10:30.225Z,7.25
2019-06-01T20:12:11.289Z,8.25
2019-06-01T20:17:22.950Z,10.53
2019-06-01T20:19:45.487Z,8.33
2019-06-01T20:22:23.813Z,9.75
2019-06-01T20:26:39.635Z,8.65
2019-06-01T20:27:37.603Z,7.35
2019-06-01T20:30:00.248Z,6.37
2019-06-01T20:32:26.153Z,5.40
2019-06-01T20:35:22.227Z,6.58
2019-06-01T20:37:53.268Z,6.03
2019-06-01T20:43:49.003Z,5.87
2019-06-01T20:52:39.072Z,16.70
2019-06-01T20:54:24.259Z,12.43
2019-06-01T20:56:50.176Z,9.93
2019-06-01T20:59:21.527Z,9.08
2019-06-01T21:05:35.711Z,8.63
2019-06-01T21:05:58.781Z,10.40
2019-06-01T21:08:28.057Z,8.93
2019-06-01T21:11:20.063Z,8.45
2019-06-01T21:13:28.470Z,9.00
2019-06-01T21:16:25.164Z,9.88
2019-06-01T21:19:14.066Z,7.40
2019-06-01T21:20:55.378Z,8.90
2019-06-01T21:23:28.555Z,10.15
2019-06-01T21:27:18.529Z,12.70
2019-06-01T21:28:26.505Z,22.42
2019-06-01T21:31:33.720Z,18.23
2019-06-01T21:33:58.229Z,12.60
2019-06-01T21:36:53.218Z,8.85
2019-06-01T21:39:19.664Z,7.45
2019-06-01T21:41:55.860Z,14.30
2019-06-01T21:44:25.855Z,9.30
2019-06-01T21:46:50.707Z,8.23
2019-06-01T21:49:24.037Z,7.45
2019-06-01T21:51:44.798Z,8.65
2019-06-01T21:55:18.085Z,6.33
2019-06-01T21:58:00.359Z,8.00
2019-06-01T22:00:04.068Z,5.78
2019-06-01T22:03:04.762Z,7.42
2019-06-01T22:05:04.344Z,9.43
2019-06-01T22:07:05.396Z,7.65
2019-06-01T22:09:32.200Z,7.75
2019-06-01T22:12:30.847Z,13.95
2019-06-01T22:14:27.766Z,10.30
2019-06-01T22:16:59.682Z,15.45
2019-06-01T22:19:25.770Z,17.20
2019-06-01T22:21:48.612Z,13.72
2019-06-01T22:24:14.294Z,8.48
2019-06-01T22:26:41.638Z,9.70
2019-06-01T22:29:10.125Z,8.95
2019-06-01T22:32:42.189Z,9.75
2019-06-01T22:34:46.820Z,7.95
2019-06-01T22:36:43.593Z,7.67
2019-06-01T22:42:33.989Z,8.23
2019-06-01T22:43:41.341Z,8.45
2019-06-01T22:45:26.956Z,18.77
2019-06-01T22:47:51.853Z,15.78
2019-06-01T22:50:46.622Z,16.97
2019-06-01T22:52:55.976Z,14.23
2019-06-01T22:56:23.217Z,17.02
2019-06-01T22:58:10.041Z,14.10
2019-06-01T23:00:22.025Z,18.40
2019-06-01T23:02:47.170Z,15.95
2019-06-01T23:05:51.448Z,16.35
2019-06-01T23:08:55.375Z,13.13
2019-06-01T23:11:23.208Z,10.60
2019-06-01T23:13:32.435Z,13.05
2019-06-01T23:15:58.318Z,16.70
2019-06-01T23:18:25.671Z,17.95
2019-06-01T23:21:31.971Z,17.00
2019-06-01T23:23:32.940Z,17.23
2019-06-01T23:26:30.854Z,13.15
2019-06-01T23:28:32.541Z,13.38
2019-06-01T23:30:57.788Z,12.60
2019-06-01T23:33:24.753Z,10.38
2019-06-01T23:36:01.886Z,11.30
2019-06-01T23:38:59.175Z,11.00
2019-06-01T23:40:59.143Z,9.05
2019-06-01T23:43:26.952Z,9.93
2019-06-01T23:46:26.952Z,10.78
2019-06-01T23:48:25.035Z,10.63
2019-06-01T23:50:49.726Z,10.63
2019-06-01T23:53:46.194Z,12.75
2019-06-01T23:56:16.928Z,9.35
2019-06-01T23:58:23.995Z,10.50
